Time;durP1;ratioP1;P1;durP2;ratioP2;P2;SDS_P1;SDS_P2;PMS_P1;PMS_P2;Temp;Humidity;BMP_temperature;BMP_pressure;BME280_temperature;BME280_humidity;BME280_pressure;Samples;Min_cycle;Max_cycle;Signal;HPM_P1;HPM_P2
2023/09/19 00:01:20;;;;;;;1605.50;999.90;;;14.30;99.90;;;;;;4912177;29;20055;-81
2023/09/19 00:03:46;;;;;;;1574.53;999.90;;;14.30;99.90;;;;;;4896606;29;20047;-81
2023/09/19 00:06:15;;;;;;;1559.40;999.90;;;14.30;99.90;;;;;;4912907;29;20523;-81
2023/09/19 00:08:44;;;;;;;1594.38;999.90;;;14.20;99.90;;;;;;4911518;29;20135;-81
2023/09/19 00:11:10;;;;;;;1624.30;999.90;;;14.20;99.90;;;;;;4912373;29;20052;-81
2023/09/19 00:13:36;;;;;;;1601.95;999.90;;;14.20;99.90;;;;;;4908188;29;20055;-80
2023/09/19 00:16:10;;;;;;;1641.78;999.90;;;14.20;99.90;;;;;;4903639;29;20044;-80
2023/09/19 00:18:37;;;;;;;1513.30;999.90;;;14.20;99.90;;;;;;4911579;29;20048;-81
2023/09/19 00:21:06;;;;;;;1614.00;999.90;;;14.20;99.90;;;;;;4914262;29;20056;-81
2023/09/19 00:23:32;;;;;;;1598.93;999.90;;;14.10;99.90;;;;;;4895732;29;20040;-81
2023/09/19 00:26:01;;;;;;;1491.13;999.28;;;14.10;99.90;;;;;;4911791;29;20434;-81
2023/09/19 00:28:27;;;;;;;1580.05;999.90;;;14.10;99.90;;;;;;4912153;29;20075;-80
2023/09/19 00:30:56;;;;;;;1538.93;999.90;;;14.10;99.90;;;;;;4911220;29;20063;-81
2023/09/19 00:33:22;;;;;;;1473.97;999.90;;;14.10;99.90;;;;;;4911619;29;20060;-81
2023/09/19 00:35:56;;;;;;;1474.50;999.90;;;14.10;99.90;;;;;;4911515;29;20496;-81
2023/09/19 00:38:26;;;;;;;1383.50;990.95;;;14.10;99.90;;;;;;4900178;29;20125;-81
2023/09/19 00:40:53;;;;;;;1391.15;982.15;;;14.10;99.90;;;;;;4911522;29;20109;-81
2023/09/19 00:43:19;;;;;;;1410.93;999.47;;;14.00;99.90;;;;;;4895482;29;20044;-81
2023/09/19 00:45:51;;;;;;;1436.97;998.05;;;14.00;99.90;;;;;;4894501;29;20493;-81
2023/09/19 00:48:18;;;;;;;1367.18;977.38;;;13.90;99.90;;;;;;4911468;29;20060;-81
2023/09/19 00:50:47;;;;;;;1342.95;971.78;;;13.90;99.90;;;;;;4912070;29;20461;-80
2023/09/19 00:53:18;;;;;;;1414.47;991.50;;;13.90;99.90;;;;;;4911593;29;20062;-81
2023/09/19 00:55:45;;;;;;;1393.35;999.90;;;13.80;99.90;;;;;;4910157;29;20051;-81
2023/09/19 00:58:12;;;;;;;1377.07;993.90;;;13.80;99.90;;;;;;4902510;29;20072;-81
2023/09/19 01:00:38;;;;;;;1422.30;999.30;;;13.80;99.90;;;;;;4907907;29;20631;-80
2023/09/19 01:03:06;;;;;;;1306.97;974.90;;;13.80;99.90;;;;;;4902896;29;20199;-80
2023/09/19 01:05:33;;;;;;;1401.85;998.50;;;13.80;99.90;;;;;;4910242;29;20143;-81
2023/09/19 01:07:59;;;;;;;1394.57;996.20;;;13.70;99.90;;;;;;4910819;29;20051;-80
2023/09/19 01:10:25;;;;;;;1384.07;993.00;;;13.70;99.90;;;;;;4912610;29;20040;-81
2023/09/19 01:13:16;;;;;;;1326.82;973.97;;;13.70;99.90;;;;;;4910310;29;20569;-81
2023/09/19 01:16:01;;;;;;;1348.68;988.33;;;13.70;99.90;;;;;;4902746;29;20052;-81
2023/09/19 01:18:45;;;;;;;1280.22;958.30;;;13.70;99.90;;;;;;4909005;29;20079;-81
2023/09/19 01:22:03;;;;;;;1301.72;974.03;;;13.60;99.90;;;;;;4911243;29;20060;-81
2023/09/19 01:24:50;;;;;;;1212.20;940.47;;;13.60;99.90;;;;;;4815439;29;20575;-81
2023/09/19 01:27:50;;;;;;;1332.00;986.42;;;13.60;99.90;;;;;;4908444;29;20071;-81
2023/09/19 01:30:22;;;;;;;1287.05;971.65;;;13.50;99.90;;;;;;4900060;29;20076;-80
2023/09/19 01:32:52;;;;;;;1384.05;993.35;;;13.50;99.90;;;;;;4909098;29;20078;-81
2023/09/19 01:35:18;;;;;;;1252.75;956.70;;;13.50;99.90;;;;;;4912682;29;20138;-81
2023/09/19 01:37:44;;;;;;;1214.80;940.70;;;13.50;99.90;;;;;;4894231;29;20036;-81
2023/09/19 01:40:17;;;;;;;1118.80;912.35;;;13.50;99.90;;;;;;4910311;29;20047;-81
2023/09/19 01:42:55;;;;;;;1183.90;930.20;;;13.40;99.90;;;;;;4909693;29;20052;-80
2023/09/19 01:45:52;;;;;;;1053.82;894.38;;;13.40;99.90;;;;;;4910414;29;20144;-81
2023/09/19 01:48:33;;;;;;;1069.30;891.70;;;13.40;99.90;;;;;;4906267;29;20052;-80
2023/09/19 01:51:05;;;;;;;1105.82;903.38;;;13.30;99.90;;;;;;4890391;29;20058;-81
2023/09/19 01:53:51;;;;;;;1203.47;939.20;;;13.30;99.90;;;;;;4902908;29;20166;-81
2023/09/19 01:56:25;;;;;;;1028.78;890.47;;;13.30;99.90;;;;;;4894243;29;20048;-81
2023/09/19 01:58:55;;;;;;;1080.43;890.65;;;13.20;99.90;;;;;;4909577;29;20520;-81
2023/09/19 02:01:24;;;;;;;1089.45;902.00;;;13.20;99.90;;;;;;4909987;29;20060;-81
2023/09/19 02:03:50;;;;;;;1172.70;931.95;;;13.20;99.90;;;;;;4909128;29;20043;-81
2023/09/19 02:06:18;;;;;;;1204.32;942.65;;;13.20;99.90;;;;;;4910666;29;20063;-81
2023/09/19 02:08:45;;;;;;;1131.75;907.13;;;13.20;99.90;;;;;;4910095;29;20504;-81
2023/09/19 02:11:12;;;;;;;1224.35;945.33;;;13.10;99.90;;;;;;4891193;29;20048;-81
2023/09/19 02:13:38;;;;;;;1126.72;913.10;;;13.10;99.90;;;;;;4887981;29;20131;-81
2023/09/19 02:16:04;;;;;;;1208.35;947.55;;;13.10;99.90;;;;;;4901095;29;20191;-81
2023/09/19 02:18:30;;;;;;;1074.60;898.55;;;13.10;99.90;;;;;;4909661;29;20064;-81
2023/09/19 02:20:58;;;;;;;1202.57;937.45;;;13.00;99.90;;;;;;4893533;29;20685;-80
2023/09/19 02:23:24;;;;;;;1200.75;935.60;;;13.00;99.90;;;;;;4909269;29;20044;-81
2023/09/19 02:25:54;;;;;;;1115.47;912.95;;;13.00;99.90;;;;;;4910458;29;20047;-81
2023/09/19 02:28:20;;;;;;;1212.13;938.25;;;13.00;99.90;;;;;;4893647;29;20172;-81
2023/09/19 02:30:50;;;;;;;1124.15;912.38;;;13.00;99.90;;;;;;4909858;29;20158;-81
2023/09/19 02:33:17;;;;;;;1132.80;903.83;;;13.00;99.90;;;;;;4909349;29;20051;-81
2023/09/19 02:35:43;;;;;;;1129.97;914.03;;;12.90;99.90;;;;;;4908963;29;20533;-80
2023/09/19 02:38:11;;;;;;;1035.90;885.22;;;12.90;99.90;;;;;;4910833;29;20036;-81
2023/09/19 02:40:40;;;;;;;1154.80;924.33;;;12.90;99.90;;;;;;4909434;29;20083;-80
2023/09/19 02:43:07;;;;;;;1159.32;930.22;;;12.90;99.90;;;;;;4889980;29;20044;-80
2023/09/19 02:45:32;;;;;;;1048.97;885.33;;;12.80;99.90;;;;;;4903726;29;20063;-82
2023/09/19 02:47:58;;;;;;;1170.95;924.15;;;12.80;99.90;;;;;;4908860;29;20532;-80
2023/09/19 02:50:24;;;;;;;1078.35;898.08;;;12.80;99.90;;;;;;4908920;29;20048;-81
2023/09/19 02:52:50;;;;;;;1055.07;887.03;;;12.80;99.90;;;;;;4893299;29;20044;-80
2023/09/19 02:55:21;;;;;;;1171.35;919.42;;;12.80;99.90;;;;;;4906802;29;20052;-80
2023/09/19 02:57:52;;;;;;;1095.47;911.67;;;12.90;99.90;;;;;;4899030;29;20064;-80
2023/09/19 03:00:22;;;;;;;1160.32;928.17;;;12.80;99.90;;;;;;4910457;29;20048;-80
2023/09/19 03:02:55;;;;;;;1080.55;892.50;;;12.80;99.90;;;;;;4910134;29;20401;-80
2023/09/19 03:05:22;;;;;;;1060.63;888.53;;;12.80;99.90;;;;;;4908665;29;20564;-81
2023/09/19 03:07:50;;;;;;;1176.15;922.35;;;12.80;99.90;;;;;;4910284;29;20132;-80
2023/09/19 03:10:20;;;;;;;1181.18;937.88;;;12.80;99.90;;;;;;4893553;29;20131;-80
2023/09/19 03:12:49;;;;;;;1091.78;899.25;;;12.90;99.90;;;;;;4909434;29;20123;-80
2023/09/19 03:15:15;;;;;;;1145.30;932.70;;;12.90;99.90;;;;;;4880998;29;20051;-80
2023/09/19 03:17:45;;;;;;;1128.13;915.03;;;12.90;99.90;;;;;;4891420;29;20084;-80
2023/09/19 03:20:13;;;;;;;1140.82;925.45;;;12.90;99.90;;;;;;4893706;29;20116;-81
2023/09/19 03:22:42;;;;;;;1151.38;926.25;;;12.90;99.90;;;;;;4908813;29;20506;-81
2023/09/19 03:25:08;;;;;;;1041.13;883.75;;;12.80;99.90;;;;;;4889818;29;20104;-81
2023/09/19 03:27:37;;;;;;;1094.30;900.13;;;12.80;99.90;;;;;;4901540;29;20047;-81
2023/09/19 03:30:08;;;;;;;1071.55;887.50;;;12.80;99.90;;;;;;4910476;29;20044;-81
2023/09/19 03:32:47;;;;;;;1102.03;901.75;;;12.80;99.90;;;;;;4907605;29;20048;-80
2023/09/19 03:35:13;;;;;;;1175.85;932.08;;;12.70;99.90;;;;;;4909071;29;20537;-80
2023/09/19 03:37:40;;;;;;;1105.35;910.38;;;12.70;99.90;;;;;;4908714;29;20127;-80
2023/09/19 03:40:07;;;;;;;1144.25;921.85;;;12.60;99.90;;;;;;4908549;29;20052;-80
2023/09/19 03:42:35;;;;;;;1326.32;978.30;;;12.60;99.90;;;;;;4909766;29;20135;-80
2023/09/19 03:45:04;;;;;;;1279.47;954.10;;;12.60;99.90;;;;;;4910713;29;20056;-81
2023/09/19 03:47:29;;;;;;;1347.00;986.28;;;12.60;99.90;;;;;;4892059;29;20040;-80
2023/09/19 03:49:55;;;;;;;1505.22;999.90;;;12.60;99.90;;;;;;4889933;29;20136;-80
2023/09/19 03:52:21;;;;;;;1487.72;999.90;;;12.60;99.90;;;;;;4905272;29;20564;-81
2023/09/19 03:54:46;;;;;;;1524.45;999.90;;;12.60;99.90;;;;;;4889380;29;20473;-81
2023/09/19 03:57:12;;;;;;;1549.30;999.90;;;12.60;99.90;;;;;;4888868;29;20044;-80
2023/09/19 03:59:38;;;;;;;1698.47;999.90;;;12.50;99.90;;;;;;4910545;29;20523;-80
2023/09/19 04:02:04;;;;;;;1596.72;999.90;;;12.60;99.90;;;;;;4908283;29;20052;-80
2023/09/19 04:04:30;;;;;;;1632.72;999.90;;;12.60;99.90;;;;;;4893642;29;20107;-80
2023/09/19 04:06:55;;;;;;;1641.38;999.90;;;12.60;99.90;;;;;;4909414;29;20400;-80
2023/09/19 04:09:21;;;;;;;1621.38;999.90;;;12.70;99.90;;;;;;4910815;29;20040;-80
2023/09/19 04:11:47;;;;;;;1583.63;999.90;;;12.70;99.90;;;;;;4910481;29;20048;-81
2023/09/19 04:14:12;;;;;;;1613.60;999.90;;;12.70;99.90;;;;;;4911973;29;20040;-80
2023/09/19 04:16:38;;;;;;;1634.53;999.90;;;12.80;99.90;;;;;;4910441;29;20132;-80
2023/09/19 04:19:05;;;;;;;1625.60;999.90;;;12.80;99.90;;;;;;4912426;29;20052;-80
2023/09/19 04:21:33;;;;;;;1593.18;999.90;;;12.80;99.90;;;;;;4911502;29;20091;-80
2023/09/19 04:23:59;;;;;;;1623.63;999.90;;;12.90;99.90;;;;;;4896881;29;20720;-80
2023/09/19 04:26:26;;;;;;;1570.65;999.90;;;12.90;99.90;;;;;;4883313;29;20048;-80
2023/09/19 04:28:51;;;;;;;1590.88;999.90;;;12.90;99.90;;;;;;4908029;29;20092;-80
2023/09/19 04:31:18;;;;;;;1587.63;999.90;;;12.90;99.90;;;;;;4893743;29;20052;-80
2023/09/19 04:33:44;;;;;;;1486.35;999.90;;;12.90;99.90;;;;;;4912141;29;20131;-80
2023/09/19 04:36:09;;;;;;;1532.38;999.90;;;12.90;99.90;;;;;;4911316;29;20122;-81
2023/09/19 04:38:35;;;;;;;1605.93;999.90;;;12.90;99.90;;;;;;4911511;29;20137;-80
2023/09/19 04:41:01;;;;;;;1516.47;999.90;;;12.90;99.90;;;;;;4908756;29;20539;-80
2023/09/19 04:43:26;;;;;;;1589.10;999.90;;;12.90;99.90;;;;;;4890655;29;20629;-80
2023/09/19 04:45:55;;;;;;;1557.55;999.90;;;13.00;99.90;;;;;;4907229;29;20052;-80
2023/09/19 04:48:24;;;;;;;1526.72;999.90;;;12.90;99.90;;;;;;4897250;29;20456;-80
2023/09/19 04:50:50;;;;;;;1519.35;999.90;;;13.00;99.90;;;;;;4905688;29;20063;-81
2023/09/19 04:53:17;;;;;;;1557.15;999.90;;;13.00;99.90;;;;;;4894399;29;20079;-81
2023/09/19 04:55:43;;;;;;;1526.28;999.90;;;13.00;99.90;;;;;;4911978;29;20048;-80
2023/09/19 04:58:09;;;;;;;1515.50;999.90;;;13.00;99.90;;;;;;4910743;29;20036;-80
2023/09/19 05:00:35;;;;;;;1524.78;999.90;;;13.00;99.90;;;;;;4912806;29;20127;-80
2023/09/19 05:03:00;;;;;;;1466.35;999.90;;;13.00;99.90;;;;;;4911507;29;20044;-80
2023/09/19 05:05:26;;;;;;;1479.30;999.90;;;13.10;99.90;;;;;;4911406;29;20056;-81
2023/09/19 05:07:55;;;;;;;1578.28;999.90;;;13.10;99.90;;;;;;4912804;29;20098;-80
2023/09/19 05:10:21;;;;;;;1538.53;999.90;;;13.10;99.90;;;;;;4911826;29;20746;-80
2023/09/19 05:12:48;;;;;;;1552.90;999.90;;;13.10;99.90;;;;;;4911334;29;20123;-81
2023/09/19 05:15:17;;;;;;;1510.50;999.90;;;13.10;99.90;;;;;;4898717;29;20044;-80
2023/09/19 05:17:51;;;;;;;1614.40;999.90;;;13.10;99.90;;;;;;4898621;29;20076;-80
2023/09/19 05:20:30;;;;;;;1543.50;999.90;;;13.10;99.90;;;;;;4911090;29;20047;-80
2023/09/19 05:23:07;;;;;;;1559.38;999.90;;;13.10;99.90;;;;;;4893521;29;20120;-80
2023/09/19 05:25:37;;;;;;;1496.50;999.90;;;13.10;99.90;;;;;;4908290;29;20063;-81
2023/09/19 05:28:03;;;;;;;1485.20;999.55;;;13.10;99.90;;;;;;4908741;29;20072;-81
2023/09/19 05:30:29;;;;;;;1570.65;999.90;;;13.10;99.90;;;;;;4912405;29;20047;-80
2023/09/19 05:32:56;;;;;;;1515.32;999.90;;;13.20;99.90;;;;;;4909282;29;20040;-81
2023/09/19 05:35:22;;;;;;;1448.88;999.90;;;13.20;99.90;;;;;;4910787;29;20492;-80
2023/09/19 05:37:50;;;;;;;1465.10;999.90;;;13.20;99.90;;;;;;4910285;29;20086;-80
2023/09/19 05:40:17;;;;;;;1455.93;999.90;;;13.20;99.90;;;;;;4910311;29;20103;-80
2023/09/19 05:42:43;;;;;;;1435.13;998.60;;;13.20;99.90;;;;;;4910029;29;20127;-81
2023/09/19 05:45:12;;;;;;;1456.97;999.90;;;13.20;99.90;;;;;;4884573;29;20056;-79
2023/09/19 05:47:43;;;;;;;1512.72;999.90;;;13.20;99.90;;;;;;4907630;29;20055;-80
2023/09/19 05:50:09;;;;;;;1493.78;999.90;;;13.30;99.90;;;;;;4912657;29;20059;-80
2023/09/19 05:52:38;;;;;;;1480.45;999.90;;;13.30;99.90;;;;;;4910932;29;20381;-81
2023/09/19 05:55:06;;;;;;;1435.10;999.90;;;13.30;99.90;;;;;;4895080;29;20063;-80
2023/09/19 05:57:32;;;;;;;1485.28;999.90;;;13.30;99.90;;;;;;4909824;29;20056;-80
2023/09/19 05:59:58;;;;;;;1444.95;998.58;;;13.40;99.90;;;;;;4909910;29;20529;-80
2023/09/19 06:02:25;;;;;;;1449.63;999.90;;;13.30;99.90;;;;;;4909632;29;20131;-80
2023/09/19 06:04:52;;;;;;;1383.85;986.67;;;13.40;99.90;;;;;;4910384;29;20548;-80
2023/09/19 06:07:18;;;;;;;1309.43;964.47;;;13.40;99.90;;;;;;4909593;29;20063;-80
2023/09/19 06:09:44;;;;;;;1338.15;969.22;;;13.40;99.90;;;;;;4911349;29;20048;-80
2023/09/19 06:12:11;;;;;;;1426.03;999.28;;;13.40;99.90;;;;;;4911243;29;20484;-80
2023/09/19 06:14:40;;;;;;;1406.65;999.90;;;13.40;99.90;;;;;;4885198;29;20393;-80
2023/09/19 06:17:06;;;;;;;1439.60;999.00;;;13.40;99.90;;;;;;4890388;29;20532;-80
2023/09/19 06:19:32;;;;;;;1458.97;999.90;;;13.50;99.90;;;;;;4904634;29;20465;-80
2023/09/19 06:21:59;;;;;;;1366.82;983.03;;;13.50;99.90;;;;;;4906054;29;20055;-80
2023/09/19 06:24:25;;;;;;;1312.32;961.88;;;13.50;99.90;;;;;;4905673;29;20050;-80
2023/09/19 06:26:52;;;;;;;1381.38;987.92;;;13.60;99.90;;;;;;4910439;29;20044;-80
2023/09/19 06:29:20;;;;;;;1303.13;968.15;;;13.70;99.90;;;;;;4904581;29;20127;-80
2023/09/19 06:31:47;;;;;;;1286.57;963.58;;;13.70;99.90;;;;;;4892399;29;20057;-80
2023/09/19 06:34:15;;;;;;;1241.15;947.30;;;13.70;99.90;;;;;;4903892;29;20586;-80
2023/09/19 06:36:41;;;;;;;1215.75;942.25;;;13.80;99.90;;;;;;4879546;29;20152;-80
2023/09/19 06:39:10;;;;;;;1231.32;945.45;;;13.80;99.90;;;;;;4892319;29;20100;-79
2023/09/19 06:41:39;;;;;;;1180.25;924.00;;;13.80;99.90;;;;;;4901695;29;20049;-80
2023/09/19 06:44:05;;;;;;;1096.82;901.65;;;13.80;99.90;;;;;;4889339;29;20073;-81
2023/09/19 06:46:34;;;;;;;1053.50;886.08;;;13.90;99.90;;;;;;4893192;29;20044;-81
2023/09/19 06:49:06;;;;;;;1048.47;884.10;;;13.90;99.90;;;;;;4908482;29;20056;-80
2023/09/19 06:51:32;;;;;;;1121.25;900.75;;;14.00;99.90;;;;;;4890343;29;20605;-81
2023/09/19 06:53:58;;;;;;;1131.45;910.63;;;14.00;99.90;;;;;;4890112;29;20128;-80
2023/09/19 06:56:24;;;;;;;1028.57;870.25;;;14.00;99.90;;;;;;4908550;29;20134;-81
2023/09/19 06:58:50;;;;;;;985.85;864.97;;;14.10;99.90;;;;;;4888729;29;20041;-80
2023/09/19 07:01:16;;;;;;;1004.58;871.17;;;14.10;99.90;;;;;;4902719;29;20056;-80
2023/09/19 07:03:41;;;;;;;1035.03;885.42;;;14.10;99.90;;;;;;4895793;29;20040;-80
2023/09/19 07:06:08;;;;;;;1134.07;904.63;;;14.20;99.90;;;;;;4889629;29;20048;-80
2023/09/19 07:08:34;;;;;;;1026.57;867.35;;;14.20;99.90;;;;;;4888241;29;20056;-80
2023/09/19 07:11:01;;;;;;;969.25;862.58;;;14.30;99.90;;;;;;4898387;29;20044;-81
2023/09/19 07:13:27;;;;;;;1025.25;874.60;;;14.30;99.90;;;;;;4881227;29;20052;-80
2023/09/19 07:15:54;;;;;;;956.97;851.42;;;14.40;99.90;;;;;;4896796;29;20085;-80
2023/09/19 07:18:20;;;;;;;977.60;865.65;;;14.40;99.90;;;;;;4906210;29;20060;-80
2023/09/19 07:20:49;;;;;;;960.55;853.28;;;14.50;99.90;;;;;;4891220;29;20055;-80
2023/09/19 07:23:23;;;;;;;1030.22;881.45;;;14.50;99.90;;;;;;4907834;29;20385;-80
2023/09/19 07:25:49;;;;;;;1034.45;871.08;;;14.60;99.90;;;;;;4887493;29;20053;-80
2023/09/19 07:28:16;;;;;;;972.47;860.83;;;14.60;99.90;;;;;;4899905;29;20350;-80
2023/09/19 07:30:41;;;;;;;979.60;850.22;;;14.70;99.90;;;;;;4883060;29;20052;-83
2023/09/19 07:33:11;;;;;;;869.67;780.25;;;14.70;99.90;;;;;;4889628;29;20064;-80
2023/09/19 07:35:39;;;;;;;831.03;747.67;;;14.70;99.90;;;;;;4887793;29;20056;-80
2023/09/19 07:38:05;;;;;;;933.75;831.70;;;14.80;99.90;;;;;;4908436;29;20090;-80
2023/09/19 07:40:31;;;;;;;888.88;796.83;;;14.80;99.90;;;;;;4924160;29;20195;-80
2023/09/19 07:43:01;;;;;;;887.97;796.28;;;14.80;99.90;;;;;;4899633;29;20509;-80
2023/09/19 07:45:31;;;;;;;881.90;791.20;;;14.80;99.90;;;;;;4909195;29;20048;-80
2023/09/19 07:47:57;;;;;;;848.08;764.67;;;14.80;99.90;;;;;;4896235;29;20169;-80
2023/09/19 07:50:23;;;;;;;868.40;780.15;;;14.90;99.90;;;;;;4897284;29;20055;-80
2023/09/19 07:52:53;;;;;;;881.72;791.58;;;15.00;99.90;;;;;;4903004;29;20397;-81
2023/09/19 07:55:23;;;;;;;886.35;797.50;;;15.10;99.90;;;;;;4911344;29;20141;-80
2023/09/19 07:57:49;;;;;;;895.75;801.70;;;15.10;99.90;;;;;;4910795;29;20056;-81
2023/09/19 08:00:15;;;;;;;872.92;784.78;;;15.20;99.90;;;;;;4910142;29;20044;-81
2023/09/19 08:02:41;;;;;;;883.78;792.20;;;15.20;99.90;;;;;;4909971;29;20052;-80
2023/09/19 08:05:12;;;;;;;875.60;785.95;;;15.20;99.90;;;;;;4911340;29;20241;-80
2023/09/19 08:07:38;;;;;;;826.17;743.85;;;15.10;99.90;;;;;;4893665;29;20040;-80
2023/09/19 08:10:12;;;;;;;875.30;787.70;;;15.10;99.90;;;;;;4896793;29;20551;-80
2023/09/19 08:12:46;;;;;;;891.90;801.15;;;15.10;99.90;;;;;;4893681;29;20154;-80
2023/09/19 08:15:19;;;;;;;898.67;804.83;;;15.20;99.90;;;;;;4893679;29;20076;-80
2023/09/19 08:17:45;;;;;;;841.63;759.25;;;15.20;99.90;;;;;;4888144;29;20060;-80
2023/09/19 08:20:19;;;;;;;862.00;775.10;;;15.20;99.90;;;;;;4890179;29;20044;-80
2023/09/19 08:22:54;;;;;;;919.47;823.10;;;15.20;99.90;;;;;;4904069;29;20142;-80
2023/09/19 08:25:25;;;;;;;869.88;785.20;;;15.30;99.90;;;;;;4911192;29;20044;-80
2023/09/19 08:27:51;;;;;;;889.17;796.85;;;15.30;99.90;;;;;;4894568;29;20047;-81
2023/09/19 08:30:23;;;;;;;874.95;786.15;;;15.40;99.90;;;;;;4893412;29;20064;-81
2023/09/19 08:32:59;;;;;;;877.60;788.70;;;15.60;99.90;;;;;;4891453;29;20074;-80
2023/09/19 08:35:26;;;;;;;854.13;769.25;;;15.60;99.90;;;;;;4927311;29;20044;-80
2023/09/19 08:37:51;;;;;;;920.67;822.63;;;15.60;99.90;;;;;;4911022;29;20480;-80
2023/09/19 08:40:18;;;;;;;827.80;745.83;;;15.70;99.90;;;;;;4912143;29;20044;-80
2023/09/19 08:42:51;;;;;;;845.30;761.78;;;15.80;99.90;;;;;;4909895;29;20040;-80
2023/09/19 08:45:17;;;;;;;844.95;758.97;;;15.80;99.90;;;;;;4893342;29;20049;-80
2023/09/19 08:47:53;;;;;;;777.90;703.00;;;15.90;99.90;;;;;;4909213;29;20044;-81
2023/09/19 08:50:29;;;;;;;875.95;784.83;;;15.90;99.90;;;;;;4910725;29;20052;-80
2023/09/19 08:52:57;;;;;;;863.42;774.53;;;16.00;99.90;;;;;;4897231;29;20457;-80
2023/09/19 08:55:28;;;;;;;819.65;734.25;;;16.10;99.90;;;;;;4924173;29;20064;-81
2023/09/19 08:58:19;;;;;;;871.80;779.17;;;16.10;99.90;;;;;;4891174;29;20114;-80
2023/09/19 09:00:49;;;;;;;848.83;757.35;;;16.20;99.90;;;;;;4891191;29;20568;-80
2023/09/19 09:03:16;;;;;;;911.63;810.72;;;16.20;99.90;;;;;;4888414;29;20485;-80
2023/09/19 09:05:46;;;;;;;838.17;755.28;;;16.20;99.90;;;;;;4922512;29;20171;-80
2023/09/19 09:08:12;;;;;;;852.25;763.35;;;16.20;99.90;;;;;;4909251;29;20052;-80
2023/09/19 09:10:40;;;;;;;907.15;803.33;;;16.20;99.90;;;;;;4893937;29;20048;-81
2023/09/19 09:13:06;;;;;;;871.20;776.53;;;16.30;99.90;;;;;;4911664;29;20056;-80
2023/09/19 09:15:36;;;;;;;940.25;813.58;;;16.40;99.90;;;;;;4895193;29;20464;-81
2023/09/19 09:18:04;;;;;;;903.05;802.55;;;16.40;99.90;;;;;;4909804;29;20060;-80
2023/09/19 09:20:30;;;;;;;869.22;775.50;;;16.40;99.90;;;;;;4892689;29;20099;-80
2023/09/19 09:23:04;;;;;;;869.47;776.25;;;16.40;99.90;;;;;;4890414;29;20553;-80
2023/09/19 09:25:56;;;;;;;851.25;761.60;;;16.40;99.90;;;;;;4891265;29;20044;-80
2023/09/19 09:28:27;;;;;;;862.88;774.45;;;16.40;99.90;;;;;;4907629;29;20157;-80
2023/09/19 09:31:08;;;;;;;821.33;735.75;;;16.50;99.90;;;;;;4890981;29;20076;-80
2023/09/19 09:33:34;;;;;;;832.47;746.08;;;16.50;99.90;;;;;;4894679;29;20135;-81
2023/09/19 09:36:02;;;;;;;804.47;726.00;;;16.50;99.90;;;;;;4910584;29;20104;-80
2023/09/19 09:38:46;;;;;;;817.67;733.92;;;16.60;99.90;;;;;;4910376;29;20793;-80
2023/09/19 09:41:16;;;;;;;804.42;720.78;;;16.70;99.90;;;;;;4894561;29;20052;-80
2023/09/19 09:43:44;;;;;;;817.10;733.45;;;16.70;99.90;;;;;;4894913;29;20479;-80
2023/09/19 09:49:15;;;;;;;827.67;743.88;;;16.80;99.90;;;;;;4909972;29;20048;-81
2023/09/19 09:51:48;;;;;;;853.20;762.78;;;17.00;99.90;;;;;;4909084;29;20091;-81
2023/09/19 09:54:16;;;;;;;813.67;727.33;;;17.10;99.90;;;;;;4910258;29;20044;-80
2023/09/19 09:56:58;;;;;;;858.58;767.35;;;17.20;99.90;;;;;;4909950;29;20059;-81
2023/09/19 09:59:47;;;;;;;703.60;630.00;;;17.30;99.90;;;;;;4907323;29;20139;-81
2023/09/19 10:02:25;;;;;;;762.40;682.38;;;17.40;99.90;;;;;;4908358;29;20319;-80
2023/09/19 10:04:52;;;;;;;801.88;712.28;;;17.50;99.90;;;;;;4891404;29;20051;-80
2023/09/19 10:08:19;;;;;;;769.85;686.65;;;17.60;99.90;;;;;;4890421;29;20460;-80
2023/09/19 10:13:13;;;;;;;722.42;644.85;;;17.80;99.90;;;;;;4909802;29;20099;-81
2023/09/19 10:15:50;;;;;;;759.25;681.17;;;17.80;99.90;;;;;;4899118;29;20099;-81
2023/09/19 10:18:21;;;;;;;723.83;656.15;;;17.80;99.90;;;;;;4894143;29;20139;-81
2023/09/19 10:20:49;;;;;;;776.08;703.72;;;17.90;99.90;;;;;;4909935;29;20127;-81
2023/09/19 10:23:22;;;;;;;793.22;715.38;;;17.90;99.90;;;;;;4910285;29;20103;-81
2023/09/19 10:25:48;;;;;;;;;;;17.90;99.90;;;;;;4911261;29;20043;-80
2023/09/19 10:28:15;;;;;;;833.65;746.53;;;17.90;99.90;;;;;;4906248;29;19923;-81
2023/09/19 10:30:44;;;;;;;840.35;757.63;;;18.00;99.90;;;;;;4911377;29;20055;-81
2023/09/19 10:33:11;;;;;;;810.58;732.58;;;18.20;99.90;;;;;;4909577;29;20044;-81
2023/09/19 10:35:46;;;;;;;847.35;761.67;;;18.20;99.90;;;;;;4909336;29;20056;-81
2023/09/19 10:38:14;;;;;;;844.85;760.10;;;18.40;99.90;;;;;;4897830;29;20055;-81
2023/09/19 10:40:43;;;;;;;853.10;767.17;;;18.40;99.90;;;;;;4909162;29;20485;-81
2023/09/19 10:43:17;;;;;;;868.65;780.40;;;18.50;99.90;;;;;;4906965;29;20045;-81
2023/09/19 10:45:44;;;;;;;819.30;740.92;;;18.60;99.90;;;;;;4905352;29;20434;-81
2023/09/19 10:48:12;;;;;;;888.42;796.88;;;18.50;99.90;;;;;;4909090;29;20099;-80
2023/09/19 10:51:00;;;;;;;883.60;795.50;;;18.40;99.90;;;;;;4902858;29;20485;-81
2023/09/19 10:53:28;;;;;;;858.40;774.05;;;18.40;99.90;;;;;;4909975;29;20409;-80
2023/09/19 10:55:59;;;;;;;855.80;771.08;;;18.40;99.90;;;;;;4900781;29;20472;-81
2023/09/19 10:58:29;;;;;;;822.72;745.05;;;18.30;99.90;;;;;;4894688;29;20135;-80
2023/09/19 11:01:10;;;;;;;850.45;769.15;;;18.20;99.90;;;;;;4906560;29;20052;-80
2023/09/19 11:03:42;;;;;;;883.10;793.47;;;18.10;99.90;;;;;;4894354;29;20599;-80
2023/09/19 11:06:13;;;;;;;;;;;18.20;99.90;;;;;;4890711;29;20139;-80
2023/09/19 11:08:58;;;;;;;854.42;770.25;;;18.20;99.90;;;;;;4890810;29;19927;-82
2023/09/19 11:11:39;;;;;;;842.50;758.95;;;18.30;99.90;;;;;;4908110;29;20508;-81
2023/09/19 11:14:20;;;;;;;902.00;807.85;;;18.20;99.90;;;;;;4900694;29;20474;-81
2023/09/19 11:17:09;;;;;;;884.08;793.33;;;18.10;99.90;;;;;;4902961;29;20103;-82
2023/09/19 11:20:25;;;;;;;890.22;797.70;;;18.10;99.90;;;;;;4907237;29;20066;-81
2023/09/19 11:22:49;;;;;;;867.47;777.55;;;18.10;99.90;;;;;;4906024;29;20063;-80
2023/09/19 11:25:30;;;;;;;942.17;840.10;;;18.10;99.90;;;;;;4907026;29;20060;-80
2023/09/19 11:28:19;;;;;;;907.90;811.47;;;18.20;99.90;;;;;;4903180;29;20056;-81
2023/09/19 11:30:47;;;;;;;892.70;800.45;;;18.30;99.90;;;;;;4907831;29;20056;-81
2023/09/19 11:33:38;;;;;;;854.17;768.13;;;18.30;99.90;;;;;;4906367;29;20049;-81
2023/09/19 11:36:15;;;;;;;831.58;750.08;;;18.20;99.90;;;;;;4906582;29;20062;-80
2023/09/19 11:38:44;;;;;;;844.78;757.83;;;18.00;99.90;;;;;;4905444;29;20052;-80
2023/09/19 11:43:48;;;;;;;903.15;807.88;;;18.00;99.90;;;;;;4906117;29;20056;-81
2023/09/19 11:46:16;;;;;;;902.75;806.97;;;18.10;99.90;;;;;;4896158;29;20091;-81
2023/09/19 11:48:44;;;;;;;874.85;786.60;;;18.20;99.90;;;;;;4895822;29;20115;-81
2023/09/19 11:51:19;;;;;;;849.08;763.85;;;18.20;99.90;;;;;;4887242;29;20049;-81
2023/09/19 11:53:48;;;;;;;957.20;853.28;;;18.20;99.90;;;;;;4902976;29;20408;-81
2023/09/19 11:56:17;;;;;;;894.25;800.88;;;18.20;99.90;;;;;;4905873;29;20056;-81
2023/09/19 11:58:44;;;;;;;878.00;787.28;;;18.20;99.90;;;;;;4879451;29;20152;-81
2023/09/19 12:01:14;;;;;;;831.03;746.38;;;18.30;99.90;;;;;;4899940;29;20057;-81
2023/09/19 12:03:47;;;;;;;851.58;765.58;;;18.20;99.90;;;;;;4902765;29;20416;-81
2023/09/19 12:06:14;;;;;;;857.13;770.30;;;18.20;99.90;;;;;;4886899;29;20116;-81
2023/09/19 12:08:42;;;;;;;913.15;814.45;;;18.10;99.90;;;;;;4905369;29;20123;-81
2023/09/19 12:11:13;;;;;;;879.17;788.00;;;18.10;99.90;;;;;;4907672;29;20491;-81
2023/09/19 12:13:47;;;;;;;899.25;804.60;;;18.00;99.90;;;;;;4889253;29;20080;-81
2023/09/19 12:16:21;;;;;;;908.15;811.78;;;17.90;99.90;;;;;;4899152;29;20091;-81
2023/09/19 12:18:49;;;;;;;888.58;795.30;;;17.80;99.90;;;;;;4904523;29;20056;-81
2023/09/19 12:21:31;;;;;;;913.47;817.72;;;17.80;99.90;;;;;;4883949;29;20055;-81
2023/09/19 12:24:04;;;;;;;897.00;802.35;;;17.80;99.90;;;;;;4887211;29;20049;-81
2023/09/19 12:26:37;;;;;;;886.78;792.45;;;17.80;99.90;;;;;;4902201;29;20052;-81